createdAt,value
2019-05-30T00:00:53.894Z,101194.27
2019-05-30T00:03:25.481Z,101198.53
2019-05-30T00:05:58.324Z,101198.42
2019-05-30T00:08:30.057Z,101189.77
2019-05-30T00:11:02.791Z,101192.16
2019-05-30T00:13:34.449Z,101193.41
2019-05-30T00:16:06.223Z,101190.17
2019-05-30T00:18:38.007Z,101187.87
2019-05-30T00:21:09.658Z,101191.83
2019-05-30T00:23:41.351Z,101191.32
2019-05-30T00:26:16.410Z,101188.32
2019-05-30T00:28:47.868Z,101189.08
2019-05-30T00:31:19.629Z,101187.56
2019-05-30T00:33:51.424Z,101182.19
2019-05-30T00:36:23.302Z,101184.76
2019-05-30T00:38:55.625Z,101185.98
2019-05-30T00:41:27.471Z,101180.97
2019-05-30T00:43:59.930Z,101176.83
2019-05-30T00:46:31.737Z,101177.08
2019-05-30T00:49:04.505Z,101180.57
2019-05-30T00:51:36.114Z,101182.98
2019-05-30T00:54:07.970Z,101186.66
2019-05-30T00:56:39.752Z,101188.36
2019-05-30T00:59:11.541Z,101189.89
2019-05-30T01:01:43.300Z,101186.55
2019-05-30T01:04:14.995Z,101183.84
2019-05-30T01:06:46.666Z,101189.11
2019-05-30T01:09:18.426Z,101186.55
2019-05-30T01:11:50.223Z,101186.55
2019-05-30T01:14:21.999Z,101179.92
2019-05-30T01:16:53.774Z,101179.24
2019-05-30T01:19:25.657Z,101172.72
2019-05-30T01:21:57.412Z,101174.73
2019-05-30T01:24:29.289Z,101177.62
2019-05-30T01:27:01.370Z,101168.36
2019-05-30T01:29:33.270Z,101176.47
2019-05-30T01:32:07.616Z,101173.09
2019-05-30T01:34:39.361Z,101173.58
2019-05-30T01:37:11.063Z,101177.66
2019-05-30T01:39:42.729Z,101179.81
2019-05-30T01:42:14.503Z,101178.36
2019-05-30T01:44:46.284Z,101181.92
2019-05-30T01:47:18.144Z,101180.20
2019-05-30T01:49:49.921Z,101177.00
2019-05-30T01:52:22.020Z,101171.90
2019-05-30T01:54:53.797Z,101172.20
2019-05-30T01:57:25.572Z,101172.92
2019-05-30T01:59:58.616Z,101172.25
2019-05-30T02:02:30.251Z,101163.72
2019-05-30T02:05:03.022Z,101169.84
2019-05-30T02:07:34.911Z,101171.41
2019-05-30T02:10:07.440Z,101172.63
2019-05-30T02:12:38.906Z,101183.41
2019-05-30T02:15:10.957Z,101179.92
2019-05-30T02:17:42.529Z,101192.67
2019-05-30T02:20:15.361Z,101188.09
2019-05-30T02:22:46.800Z,101188.19
2019-05-30T02:25:19.127Z,101190.36
2019-05-30T02:27:50.574Z,101192.25
2019-05-30T02:30:22.537Z,101184.43
2019-05-30T02:32:54.519Z,101195.08
2019-05-30T02:35:26.524Z,101189.19
2019-05-30T02:37:58.389Z,101199.92
2019-05-30T02:40:31.199Z,101199.70
2019-05-30T02:43:03.690Z,101192.41
2019-05-30T02:45:35.893Z,101194.30
2019-05-30T02:48:09.700Z,101199.86
2019-05-30T02:50:41.374Z,101207.94
2019-05-30T02:53:14.177Z,101203.81
2019-05-30T02:55:45.931Z,101203.41
2019-05-30T02:58:17.708Z,101201.57
2019-05-30T03:00:49.413Z,101203.41
2019-05-30T03:03:21.181Z,101207.45
2019-05-30T03:05:52.938Z,101208.38
2019-05-30T03:08:24.933Z,101216.91
2019-05-30T03:10:56.615Z,101200.06
2019-05-30T03:13:28.589Z,101203.44
2019-05-30T03:16:01.949Z,101201.62
2019-05-30T03:18:33.258Z,101215.33
2019-05-30T03:21:06.397Z,101223.23
2019-05-30T03:23:38.725Z,101218.12
2019-05-30T03:26:12.988Z,101223.27
2019-05-30T03:28:43.967Z,101229.47
2019-05-30T03:31:27.669Z,101228.30
2019-05-30T03:33:51.522Z,101218.07
2019-05-30T03:36:30.107Z,101216.23
2019-05-30T03:38:56.891Z,101226.73
2019-05-30T03:41:28.875Z,101224.48
2019-05-30T03:44:00.951Z,101221.31
2019-05-30T03:46:35.269Z,101216.09
2019-05-30T03:49:10.742Z,101218.99
2019-05-30T03:51:45.923Z,101216.45
2019-05-30T03:54:18.999Z,101223.80
2019-05-30T03:57:09.161Z,101216.29
2019-05-30T03:59:47.818Z,101220.69
2019-05-30T04:02:22.357Z,101223.23
2019-05-30T04:05:03.278Z,101220.13
2019-05-30T04:07:37.980Z,101223.63
2019-05-30T04:10:13.411Z,101228.96
2019-05-30T04:12:56.899Z,101219.78
2019-05-30T04:15:36.137Z,101225.98
2019-05-30T04:18:09.444Z,101234.33
2019-05-30T04:20:40.980Z,101232.14
2019-05-30T04:23:14.649Z,101230.27
2019-05-30T04:25:46.172Z,101237.23
2019-05-30T04:28:18.685Z,101237.47
2019-05-30T04:30:50.581Z,101243.17
2019-05-30T04:33:32.599Z,101242.73
2019-05-30T04:35:55.579Z,101243.63
2019-05-30T04:38:27.414Z,101253.64
2019-05-30T04:40:59.194Z,101246.01
2019-05-30T04:43:30.981Z,101249.00
2019-05-30T04:46:02.837Z,101246.25
2019-05-30T04:48:34.644Z,101252.10
2019-05-30T04:51:06.409Z,101247.09
2019-05-30T04:53:38.186Z,101248.52
2019-05-30T04:56:10.353Z,101243.41
2019-05-30T04:58:42.983Z,101242.25
2019-05-30T05:01:15.538Z,101242.25
2019-05-30T05:03:47.422Z,101239.02
2019-05-30T05:06:19.880Z,101230.66
2019-05-30T05:08:51.708Z,101237.77
2019-05-30T05:11:25.390Z,101241.38
2019-05-30T05:13:56.697Z,101244.22
2019-05-30T05:16:35.411Z,101240.63
2019-05-30T05:19:01.584Z,101239.94
2019-05-30T05:21:33.353Z,101250.77
2019-05-30T05:24:05.027Z,101252.06
2019-05-30T05:26:36.789Z,101254.30
2019-05-30T05:29:08.586Z,101261.61
2019-05-30T05:31:40.235Z,101260.80
2019-05-30T05:34:12.031Z,101255.42
2019-05-30T05:36:43.925Z,101262.94
2019-05-30T05:39:16.151Z,101257.84
2019-05-30T05:41:48.060Z,101261.66
2019-05-30T05:44:20.367Z,101266.19
2019-05-30T05:46:52.141Z,101261.16
2019-05-30T05:49:24.927Z,101260.22
2019-05-30T05:51:56.599Z,101262.11
2019-05-30T05:54:29.247Z,101263.47
2019-05-30T05:57:02.121Z,101263.19
2019-05-30T05:59:33.879Z,101260.47
2019-05-30T06:02:05.769Z,101266.77
2019-05-30T06:04:37.538Z,101264.67
2019-05-30T06:07:09.213Z,101264.45
2019-05-30T06:09:40.990Z,101264.45
2019-05-30T06:12:12.747Z,101259.23
2019-05-30T06:14:44.439Z,101267.42
2019-05-30T06:17:16.966Z,101262.36
2019-05-30T06:19:48.694Z,101263.83
2019-05-30T06:22:21.441Z,101267.83
2019-05-30T06:24:52.963Z,101260.90
2019-05-30T06:27:26.041Z,101252.89
2019-05-30T06:29:57.644Z,101257.72
2019-05-30T06:32:29.436Z,101263.48
2019-05-30T06:35:01.194Z,101259.92
2019-05-30T06:37:32.990Z,101264.21
2019-05-30T06:40:06.504Z,101255.88
2019-05-30T06:42:37.973Z,101258.73
2019-05-30T06:45:10.624Z,101261.89
2019-05-30T06:47:42.140Z,101260.61
2019-05-30T06:50:14.165Z,101259.12
2019-05-30T06:52:45.902Z,101263.55
2019-05-30T06:55:17.702Z,101262.12
2019-05-30T06:57:49.860Z,101260.52
2019-05-30T07:00:22.205Z,101255.45
2019-05-30T07:02:54.181Z,101265.94
2019-05-30T07:05:27.870Z,101261.73
2019-05-30T07:07:59.010Z,101262.48
2019-05-30T07:10:31.138Z,101264.02
2019-05-30T07:13:02.975Z,101271.66
2019-05-30T07:15:37.348Z,101265.62
2019-05-30T07:18:09.391Z,101270.27
2019-05-30T07:20:41.151Z,101265.62
2019-05-30T07:23:12.930Z,101265.87
2019-05-30T07:25:44.722Z,101269.16
2019-05-30T07:28:23.705Z,101268.30
2019-05-30T07:30:56.802Z,101266.52
2019-05-30T07:33:28.525Z,101266.03
2019-05-30T07:36:00.460Z,101260.17
2019-05-30T07:38:32.643Z,101266.81
2019-05-30T07:41:04.772Z,101260.78
2019-05-30T07:43:36.146Z,101260.17
2019-05-30T07:46:08.003Z,101260.71
2019-05-30T07:48:41.072Z,101263.70
2019-05-30T07:51:15.073Z,101266.76
2019-05-30T07:53:46.746Z,101270.36
2019-05-30T07:56:18.519Z,101267.89
2019-05-30T07:58:51.303Z,101268.90
2019-05-30T08:01:23.076Z,101266.63
2019-05-30T08:03:54.965Z,101271.27
2019-05-30T08:06:27.470Z,101269.58
2019-05-30T08:08:59.348Z,101270.16
2019-05-30T08:11:31.110Z,101264.13
2019-05-30T08:14:02.879Z,101271.20
2019-05-30T08:16:35.493Z,101259.67
2019-05-30T08:19:07.251Z,101260.55
2019-05-30T08:21:38.946Z,101264.93
2019-05-30T08:24:10.719Z,101261.05
2019-05-30T08:26:42.497Z,101265.34
2019-05-30T08:29:14.272Z,101267.09
2019-05-30T08:31:46.053Z,101263.87
2019-05-30T08:34:17.839Z,101259.22
2019-05-30T08:36:49.251Z,101264.66
2019-05-30T08:39:20.691Z,101261.47
2019-05-30T08:41:52.068Z,101266.50
2019-05-30T08:44:23.793Z,101254.33
2019-05-30T08:46:55.573Z,101257.58
2019-05-30T08:49:27.156Z,101255.55
2019-05-30T08:51:58.922Z,101252.33
2019-05-30T08:54:30.812Z,101249.46
2019-05-30T08:57:02.590Z,101257.11
2019-05-30T08:59:34.531Z,101252.38
2019-05-30T09:02:06.449Z,101262.70
2019-05-30T09:04:38.042Z,101262.27
2019-05-30T09:07:10.194Z,101263.76
2019-05-30T09:09:42.482Z,101257.34
2019-05-30T09:12:13.966Z,101260.72
2019-05-30T09:14:46.853Z,101256.02
2019-05-30T09:17:18.667Z,101261.20
2019-05-30T09:19:50.409Z,101263.42
2019-05-30T09:22:22.300Z,101256.14
2019-05-30T09:24:54.078Z,101255.27
2019-05-30T09:27:25.855Z,101251.48
2019-05-30T09:29:57.630Z,101257.22
2019-05-30T09:32:29.408Z,101256.29
2019-05-30T09:35:01.193Z,101252.92
2019-05-30T09:37:32.842Z,101257.73
2019-05-30T09:40:07.598Z,101249.97
2019-05-30T09:42:40.823Z,101253.30
2019-05-30T09:45:15.041Z,101257.08
2019-05-30T09:47:47.499Z,101248.84
2019-05-30T09:50:20.509Z,101245.36
2019-05-30T09:52:52.434Z,101238.73
2019-05-30T09:55:25.576Z,101240.02
2019-05-30T09:57:56.989Z,101240.95
2019-05-30T10:00:30.155Z,101245.82
2019-05-30T10:03:01.550Z,101251.33
2019-05-30T10:05:33.444Z,101242.23
2019-05-30T10:08:05.550Z,101243.73
2019-05-30T10:10:36.984Z,101242.58
2019-05-30T10:13:08.673Z,101245.53
2019-05-30T10:15:40.867Z,101246.84
2019-05-30T10:18:12.518Z,101239.46
2019-05-30T10:20:44.451Z,101234.16
2019-05-30T10:23:17.210Z,101238.47
2019-05-30T10:25:49.537Z,101240.75
2019-05-30T10:28:21.380Z,101238.72
2019-05-30T10:30:57.268Z,101239.34
2019-05-30T10:33:26.551Z,101233.77
2019-05-30T10:35:58.450Z,101229.05
2019-05-30T10:38:30.206Z,101236.33
2019-05-30T10:41:01.981Z,101232.81
2019-05-30T10:43:33.760Z,101235.48
2019-05-30T10:46:05.559Z,101230.87
2019-05-30T10:48:37.213Z,101239.11
2019-05-30T10:51:09.002Z,101237.98
2019-05-30T10:53:40.784Z,101238.38
2019-05-30T10:56:13.291Z,101236.90
2019-05-30T10:58:46.588Z,101236.59
2019-05-30T11:01:18.343Z,101243.64
2019-05-30T11:03:50.373Z,101237.45
2019-05-30T11:06:34.493Z,101238.23
2019-05-30T11:09:06.516Z,101242.06
2019-05-30T11:11:37.859Z,101242.20
2019-05-30T11:14:09.399Z,101234.67
2019-05-30T11:16:41.176Z,101240.72
2019-05-30T11:19:12.967Z,101237.80
2019-05-30T11:21:44.727Z,101236.59
2019-05-30T11:24:16.503Z,101242.10
2019-05-30T11:26:50.449Z,101233.52
2019-05-30T11:29:21.525Z,101238.48
2019-05-30T11:31:54.937Z,101238.27
2019-05-30T11:34:26.801Z,101241.62
2019-05-30T11:36:59.334Z,101235.77
2019-05-30T11:39:31.686Z,101241.08
2019-05-30T11:42:03.448Z,101237.58
2019-05-30T11:44:35.236Z,101235.58
2019-05-30T11:47:07.114Z,101231.41
2019-05-30T11:49:38.792Z,101239.39
2019-05-30T11:52:10.649Z,101231.64
2019-05-30T11:54:42.444Z,101231.64
2019-05-30T11:57:14.423Z,101225.01
2019-05-30T11:59:46.205Z,101226.67
2019-05-30T12:02:18.078Z,101230.00
2019-05-30T12:04:50.524Z,101225.42
2019-05-30T12:07:35.683Z,101228.38
2019-05-30T12:09:56.902Z,101230.52
2019-05-30T12:12:28.544Z,101222.48
2019-05-30T12:15:01.492Z,101221.73
2019-05-30T12:17:33.240Z,101231.53
2019-05-30T12:20:06.103Z,101231.53
2019-05-30T12:22:37.601Z,101222.26
2019-05-30T12:25:09.545Z,101222.77
2019-05-30T12:27:41.074Z,101223.97
2019-05-30T12:30:13.526Z,101231.45
2019-05-30T12:32:45.026Z,101222.33
2019-05-30T12:35:17.210Z,101222.26
2019-05-30T12:37:54.819Z,101222.88
2019-05-30T12:40:22.077Z,101221.72
2019-05-30T12:49:27.938Z,101218.19
2019-05-30T12:52:00.614Z,101219.85
2019-05-30T12:54:32.314Z,101232.41
2019-05-30T12:57:04.286Z,101233.70
2019-05-30T12:59:35.906Z,101227.84
2019-05-30T13:02:07.740Z,101230.31
2019-05-30T13:04:40.335Z,101229.52
2019-05-30T13:07:11.913Z,101236.41
2019-05-30T13:09:43.787Z,101232.73
2019-05-30T13:12:15.674Z,101236.59
2019-05-30T13:14:47.527Z,101237.25
2019-05-30T13:17:20.131Z,101236.09
2019-05-30T13:19:51.610Z,101241.35
2019-05-30T13:22:25.123Z,101238.43
2019-05-30T13:24:57.525Z,101232.42
2019-05-30T13:27:29.270Z,101228.63
2019-05-30T13:30:02.270Z,101230.94
2019-05-30T13:32:35.279Z,101231.31
2019-05-30T13:35:08.192Z,101228.95
2019-05-30T13:37:40.490Z,101229.53
2019-05-30T13:40:24.193Z,101231.25
2019-05-30T13:42:46.294Z,101225.74
2019-05-30T13:45:18.787Z,101235.04
2019-05-30T13:47:50.561Z,101225.20
2019-05-30T13:50:22.934Z,101223.93
2019-05-30T13:52:54.734Z,101220.36
2019-05-30T13:55:28.266Z,101211.70
2019-05-30T13:58:00.121Z,101209.30
2019-05-30T14:00:31.880Z,101209.22
2019-05-30T14:03:04.082Z,101205.48
2019-05-30T14:05:35.968Z,101202.34
2019-05-30T14:08:10.640Z,101207.45
2019-05-30T14:10:41.052Z,101203.30
2019-05-30T14:13:12.828Z,101200.89
2019-05-30T14:15:44.593Z,101212.25
2019-05-30T14:18:19.178Z,101205.38
2019-05-30T14:20:51.003Z,101205.39
2019-05-30T14:23:22.779Z,101197.25
2019-05-30T14:25:54.455Z,101200.86
2019-05-30T14:28:26.230Z,101204.49
2019-05-30T14:30:58.025Z,101197.48
2019-05-30T14:33:29.701Z,101199.88
2019-05-30T14:36:04.591Z,101200.89
2019-05-30T14:38:34.709Z,101206.86
2019-05-30T14:41:06.959Z,101210.94
2019-05-30T14:43:38.859Z,101217.92
2019-05-30T14:46:10.628Z,101207.68
2019-05-30T14:48:42.080Z,101215.63
2019-05-30T14:51:13.874Z,101218.92
2019-05-30T14:53:45.636Z,101219.60
2019-05-30T14:56:17.640Z,101217.43
2019-05-30T14:58:49.454Z,101216.16
2019-05-30T15:01:21.290Z,101218.81
2019-05-30T15:03:52.961Z,101213.04
2019-05-30T15:06:24.843Z,101222.67
2019-05-30T15:08:56.620Z,101228.03
2019-05-30T15:11:28.479Z,101218.06
2019-05-30T15:14:00.275Z,101221.81
2019-05-30T15:16:32.033Z,101220.05
2019-05-30T15:19:04.200Z,101216.68
2019-05-30T15:21:36.626Z,101210.77
2019-05-30T15:24:09.786Z,101205.77
2019-05-30T15:26:41.900Z,101207.95
2019-05-30T15:29:14.171Z,101203.67
2019-05-30T15:31:45.882Z,101198.12
2019-05-30T15:34:17.561Z,101211.09
2019-05-30T15:36:49.333Z,101195.27
2019-05-30T15:39:32.512Z,101193.70
2019-05-30T15:41:54.605Z,101203.19
2019-05-30T15:44:26.300Z,101197.88
2019-05-30T15:46:58.057Z,101199.03
2019-05-30T15:49:29.849Z,101200.78
2019-05-30T15:52:01.634Z,101202.28
2019-05-30T15:54:33.386Z,101189.77
2019-05-30T15:57:05.284Z,101200.52
2019-05-30T15:59:37.350Z,101196.36
2019-05-30T16:02:09.905Z,101197.10
2019-05-30T16:04:41.430Z,101199.27
2019-05-30T16:07:15.272Z,101199.73
2019-05-30T16:09:47.660Z,101201.54
2019-05-30T16:12:19.439Z,101200.88
2019-05-30T16:14:51.813Z,101197.06
2019-05-30T16:17:23.593Z,101200.23
2019-05-30T16:19:56.024Z,101197.91
2019-05-30T16:22:28.370Z,101206.59
2019-05-30T16:25:00.367Z,101205.80
2019-05-30T16:27:32.641Z,101205.73
2019-05-30T16:30:09.313Z,101208.59
2019-05-30T16:32:41.081Z,101201.55
2019-05-30T16:35:14.052Z,101208.66
2019-05-30T16:37:45.761Z,101214.86
2019-05-30T16:40:18.401Z,101208.77
2019-05-30T16:42:50.048Z,101214.09
2019-05-30T16:45:24.723Z,101209.67
2019-05-30T16:47:55.031Z,101206.52
2019-05-30T16:57:20.835Z,101210.30
2019-05-30T16:59:52.801Z,101205.40
2019-05-30T17:02:24.557Z,101209.97
2019-05-30T17:04:56.235Z,101205.43
2019-05-30T17:07:28.028Z,101212.56
2019-05-30T17:09:59.790Z,101207.35
2019-05-30T17:12:31.563Z,101208.30
2019-05-30T17:15:05.301Z,101210.24
2019-05-30T17:17:36.772Z,101203.33
2019-05-30T17:20:09.513Z,101205.09
2019-05-30T17:22:41.658Z,101201.65
2019-05-30T17:25:13.418Z,101210.69
2019-05-30T17:27:44.906Z,101210.54
2019-05-30T17:30:17.581Z,101222.05
2019-05-30T17:32:49.358Z,101218.94
2019-05-30T17:35:22.033Z,101217.89
2019-05-30T17:37:53.625Z,101220.59
2019-05-30T17:40:41.199Z,101219.10
2019-05-30T17:42:59.453Z,101211.47
2019-05-30T17:45:31.230Z,101227.30
2019-05-30T17:48:16.068Z,101223.05
2019-05-30T17:50:36.194Z,101222.33
2019-05-30T17:53:07.989Z,101221.24
2019-05-30T17:55:39.763Z,101232.66
2019-05-30T17:58:11.540Z,101230.79
2019-05-30T18:00:43.320Z,101234.11
2019-05-30T18:03:15.284Z,101230.80
2019-05-30T18:05:47.365Z,101238.47
2019-05-30T18:08:19.242Z,101233.35
2019-05-30T18:10:54.139Z,101240.45
2019-05-30T18:13:25.028Z,101240.16
2019-05-30T18:15:56.744Z,101243.08
2019-05-30T18:18:29.329Z,101244.31
2019-05-30T18:21:00.988Z,101244.79
2019-05-30T18:23:32.766Z,101251.83
2019-05-30T18:26:04.646Z,101259.52
2019-05-30T18:28:36.320Z,101258.50
2019-05-30T18:31:08.095Z,101265.72
2019-05-30T18:33:40.197Z,101269.96
2019-05-30T18:36:11.972Z,101267.87
2019-05-30T18:38:43.740Z,101261.58
2019-05-30T18:41:16.629Z,101263.06
2019-05-30T18:43:48.329Z,101260.77
2019-05-30T18:46:20.206Z,101255.86
2019-05-30T18:48:51.985Z,101263.64
2019-05-30T18:51:24.083Z,101267.28
2019-05-30T18:53:55.950Z,101262.03
2019-05-30T18:56:28.698Z,101258.45
2019-05-30T18:59:00.505Z,101262.95
2019-05-30T19:01:33.646Z,101258.08
2019-05-30T19:04:08.945Z,101258.25
2019-05-30T19:06:40.971Z,101258.89
2019-05-30T19:09:12.765Z,101259.08
2019-05-30T19:11:44.523Z,101264.30
2019-05-30T19:14:16.585Z,101276.95
2019-05-30T19:16:51.144Z,101270.58
2019-05-30T19:19:25.856Z,101271.77
2019-05-30T19:21:57.560Z,101275.58
2019-05-30T19:24:30.028Z,101281.36
2019-05-30T19:27:07.555Z,101274.59
2019-05-30T19:29:39.415Z,101271.88
2019-05-30T19:32:11.316Z,101279.80
2019-05-30T19:34:43.491Z,101280.38
2019-05-30T19:37:15.685Z,101276.55
2019-05-30T19:39:47.460Z,101274.22
2019-05-30T19:42:19.360Z,101271.19
2019-05-30T19:44:51.223Z,101273.73
2019-05-30T19:47:25.443Z,101274.28
2019-05-30T19:49:56.906Z,101269.88
2019-05-30T19:52:30.646Z,101269.35
2019-05-30T19:55:02.521Z,101265.70
2019-05-30T19:57:35.575Z,101272.98
2019-05-30T20:00:09.040Z,101270.20
2019-05-30T20:02:40.692Z,101267.75
2019-05-30T20:05:14.000Z,101262.66
2019-05-30T20:07:45.592Z,101261.63
2019-05-30T20:10:20.013Z,101265.74
2019-05-30T20:12:51.601Z,101268.77
2019-05-30T20:15:24.199Z,101266.83
2019-05-30T20:17:56.056Z,101273.95
2019-05-30T20:20:28.061Z,101273.64
2019-05-30T20:23:00.231Z,101271.27
2019-05-30T20:25:32.682Z,101274.44
2019-05-30T20:28:04.291Z,101277.86
2019-05-30T20:30:37.334Z,101278.17
2019-05-30T20:33:10.022Z,101287.41
2019-05-30T20:35:43.310Z,101287.62
2019-05-30T20:38:15.300Z,101288.92
2019-05-30T20:40:47.217Z,101285.77
2019-05-30T20:43:18.994Z,101284.84
2019-05-30T20:45:50.713Z,101280.12
2019-05-30T20:48:22.405Z,101281.02
2019-05-30T20:50:54.165Z,101286.62
2019-05-30T20:53:25.943Z,101282.91
2019-05-30T20:55:57.838Z,101283.34
2019-05-30T20:58:29.600Z,101285.94
2019-05-30T21:01:01.375Z,101287.84
2019-05-30T21:03:33.480Z,101284.71
2019-05-30T21:06:05.461Z,101290.47
2019-05-30T21:08:39.020Z,101284.23
2019-05-30T21:11:11.261Z,101275.17
2019-05-30T21:13:44.308Z,101266.98
2019-05-30T21:16:18.389Z,101264.59
2019-05-30T21:18:52.024Z,101263.66
2019-05-30T21:21:23.787Z,101269.84
2019-05-30T21:23:55.650Z,101266.10
2019-05-30T21:26:27.631Z,101273.80
2019-05-30T21:28:59.604Z,101269.58
2019-05-30T21:31:31.490Z,101267.30
2019-05-30T21:34:03.484Z,101275.95
2019-05-30T21:36:35.469Z,101264.25
2019-05-30T21:39:08.270Z,101266.88
2019-05-30T21:41:40.162Z,101269.12
2019-05-30T21:44:11.922Z,101259.98
2019-05-30T21:46:44.777Z,101266.04
2019-05-30T21:49:16.386Z,101262.59
2019-05-30T21:51:48.061Z,101263.79
2019-05-30T21:54:19.828Z,101263.48
2019-05-30T21:56:51.608Z,101261.66
2019-05-30T21:59:23.427Z,101263.48
2019-05-30T22:01:57.275Z,101265.20
2019-05-30T22:04:28.695Z,101272.34
2019-05-30T22:07:00.674Z,101263.03
2019-05-30T22:09:32.537Z,101277.72
2019-05-30T22:12:04.642Z,101270.16
2019-05-30T22:14:36.109Z,101264.25
2019-05-30T22:17:07.968Z,101260.27
2019-05-30T22:19:39.761Z,101257.33
2019-05-30T22:22:11.639Z,101258.52
2019-05-30T22:24:44.199Z,101265.13
2019-05-30T22:27:15.808Z,101261.44
2019-05-30T22:29:48.504Z,101256.89
2019-05-30T22:32:20.382Z,101264.36
2019-05-30T22:34:52.969Z,101263.91
2019-05-30T22:37:24.856Z,101262.50
2019-05-30T22:39:56.634Z,101263.48
2019-05-30T22:42:28.391Z,101263.14
2019-05-30T22:45:00.187Z,101260.22
2019-05-30T22:47:32.066Z,101264.55
2019-05-30T22:50:05.056Z,101262.19
2019-05-30T22:52:36.542Z,101264.02
2019-05-30T22:55:08.317Z,101265.53
2019-05-30T22:57:40.075Z,101264.67
2019-05-30T23:00:12.075Z,101265.02
2019-05-30T23:02:43.705Z,101262.31
2019-05-30T23:05:15.506Z,101261.55
2019-05-30T23:07:47.474Z,101258.41
2019-05-30T23:10:19.288Z,101261.66
2019-05-30T23:12:51.894Z,101255.38
2019-05-30T23:15:23.759Z,101249.44
2019-05-30T23:17:56.732Z,101257.67
2019-05-30T23:20:28.319Z,101253.77
2019-05-30T23:23:00.212Z,101260.24
2019-05-30T23:25:32.091Z,101257.20
2019-05-30T23:28:03.847Z,101253.96
2019-05-30T23:30:35.544Z,101256.34
2019-05-30T23:33:07.424Z,101253.66
2019-05-30T23:35:39.097Z,101258.91
2019-05-30T23:38:10.873Z,101254.27
2019-05-30T23:40:42.654Z,101253.08
2019-05-30T23:43:14.450Z,101241.86
2019-05-30T23:45:46.201Z,101240.55
2019-05-30T23:48:17.980Z,101245.61
2019-05-30T23:50:49.823Z,101245.38
2019-05-30T23:53:21.634Z,101238.19
2019-05-30T23:55:54.277Z,101231.48
2019-05-30T23:58:25.935Z,101228.04
